createdAt,value
2022-09-30T00:00:08.797Z,5.17
2022-09-30T00:00:40.182Z,5.32
2022-09-30T00:01:11.569Z,5.28
2022-09-30T00:01:43.461Z,5.40
2022-09-30T00:02:14.946Z,5.95
2022-09-30T00:02:46.374Z,6.85
2022-09-30T00:03:17.826Z,5.60
2022-09-30T00:03:49.222Z,5.60
2022-09-30T00:04:24.591Z,5.15
2022-09-30T00:04:55.961Z,5.65
2022-09-30T00:05:27.339Z,6.03
2022-09-30T00:06:00.135Z,4.50
2022-09-30T00:06:33.938Z,5.85
2022-09-30T00:07:05.297Z,4.97
2022-09-30T00:07:36.693Z,5.70
2022-09-30T00:08:08.037Z,5.05
2022-09-30T00:08:39.473Z,6.63
2022-09-30T00:09:11.265Z,5.15
2022-09-30T00:09:42.754Z,5.65
2022-09-30T00:10:14.133Z,6.13
2022-09-30T00:10:45.520Z,5.18
2022-09-30T00:11:18.141Z,6.60
2022-09-30T00:11:49.577Z,5.15
2022-09-30T00:12:20.967Z,5.78
2022-09-30T00:12:52.454Z,4.50
2022-09-30T00:13:23.787Z,5.65
2022-09-30T00:13:55.992Z,5.57
2022-09-30T00:14:27.377Z,6.85
2022-09-30T00:14:58.877Z,5.73
2022-09-30T00:15:30.257Z,5.03
2022-09-30T00:16:01.810Z,4.85
2022-09-30T00:16:34.753Z,5.68
2022-09-30T00:17:06.109Z,5.15
2022-09-30T00:17:37.481Z,6.07
2022-09-30T00:18:08.807Z,4.80
2022-09-30T00:18:40.279Z,5.53
2022-09-30T00:19:12.150Z,5.75
2022-09-30T00:19:43.602Z,5.32
2022-09-30T00:20:15.089Z,5.72
2022-09-30T00:20:46.442Z,5.03
2022-09-30T00:21:17.847Z,5.28
2022-09-30T00:21:49.227Z,5.07
2022-09-30T00:22:20.581Z,4.93
2022-09-30T00:22:51.900Z,4.43
2022-09-30T00:23:23.854Z,5.25
2022-09-30T00:23:55.263Z,6.13
2022-09-30T00:24:26.663Z,4.85
2022-09-30T00:24:58.070Z,5.97
2022-09-30T00:25:29.448Z,5.60
2022-09-30T00:26:01.763Z,4.38
2022-09-30T00:26:33.815Z,4.15
2022-09-30T00:27:05.200Z,6.38
2022-09-30T00:27:36.535Z,5.78
2022-09-30T00:28:07.924Z,5.45
2022-09-30T00:28:40.497Z,5.40
2022-09-30T00:29:11.924Z,5.70
2022-09-30T00:29:43.364Z,5.13
2022-09-30T00:30:14.694Z,4.70
2022-09-30T00:30:46.074Z,4.87
2022-09-30T00:31:18.141Z,4.78
2022-09-30T00:31:49.601Z,5.00
2022-09-30T00:32:21.108Z,5.72
2022-09-30T00:32:52.486Z,5.05
2022-09-30T00:33:23.885Z,5.50
2022-09-30T00:33:55.296Z,5.18
2022-09-30T00:34:26.688Z,6.07
2022-09-30T00:34:58.038Z,5.90
2022-09-30T00:35:29.438Z,5.45
2022-09-30T00:36:01.386Z,4.55
2022-09-30T00:36:34.094Z,5.00
2022-09-30T00:37:05.637Z,6.40
2022-09-30T00:37:36.966Z,7.40
2022-09-30T00:38:08.306Z,6.07
2022-09-30T00:38:39.645Z,5.97
2022-09-30T00:39:18.989Z,5.70
2022-09-30T00:39:50.450Z,5.28
2022-09-30T00:40:22.055Z,5.03
2022-09-30T00:40:53.529Z,5.78
2022-09-30T00:41:24.932Z,7.28
2022-09-30T00:41:57.833Z,6.38
2022-09-30T00:42:29.221Z,5.15
2022-09-30T00:43:00.608Z,4.78
2022-09-30T00:43:58.109Z,4.82
2022-09-30T00:44:44.804Z,4.63
2022-09-30T00:45:16.203Z,5.03
2022-09-30T00:45:54.358Z,6.43
2022-09-30T00:46:32.464Z,5.53
2022-09-30T00:47:03.984Z,5.93
2022-09-30T00:47:35.355Z,5.40
2022-09-30T00:48:09.348Z,6.65
2022-09-30T00:48:40.712Z,5.25
2022-09-30T00:49:14.634Z,5.93
2022-09-30T00:49:46.023Z,6.88
2022-09-30T00:50:26.569Z,5.13
2022-09-30T00:50:58.324Z,5.28
2022-09-30T00:51:35.126Z,5.22
2022-09-30T00:52:06.504Z,4.85
2022-09-30T00:52:38.141Z,5.50
2022-09-30T00:53:12.521Z,6.63
2022-09-30T00:53:47.284Z,5.03
2022-09-30T00:54:23.885Z,6.15
2022-09-30T00:54:56.550Z,6.30
2022-09-30T00:55:35.668Z,5.90
2022-09-30T00:56:07.020Z,6.05
2022-09-30T00:56:41.654Z,5.90
2022-09-30T00:57:13.154Z,7.22
2022-09-30T00:57:44.486Z,7.60
2022-09-30T00:58:18.960Z,5.78
2022-09-30T00:59:05.444Z,7.22
2022-09-30T00:59:39.061Z,7.05
2022-09-30T01:00:10.523Z,5.13
2022-09-30T01:00:42.006Z,5.22
2022-09-30T01:01:13.720Z,6.50
2022-09-30T01:01:45.375Z,6.45
2022-09-30T01:02:17.079Z,6.65
2022-09-30T01:02:48.873Z,5.13
2022-09-30T01:03:20.618Z,5.93
2022-09-30T01:03:54.370Z,7.45
2022-09-30T01:04:26.063Z,6.37
2022-09-30T01:04:57.554Z,6.32
2022-09-30T01:05:29.644Z,6.30
2022-09-30T01:06:01.964Z,5.45
2022-09-30T01:06:33.353Z,6.85
2022-09-30T01:07:06.582Z,5.45
2022-09-30T01:07:38.075Z,8.23
2022-09-30T01:08:10.467Z,6.28
2022-09-30T01:08:42.274Z,6.75
2022-09-30T01:09:13.862Z,6.68
2022-09-30T01:09:45.393Z,5.50
2022-09-30T01:10:16.875Z,6.65
2022-09-30T01:10:48.270Z,6.63
2022-09-30T01:11:19.627Z,6.00
2022-09-30T01:11:50.991Z,6.05
2022-09-30T01:12:23.304Z,7.75
2022-09-30T01:12:55.113Z,6.20
2022-09-30T01:13:27.356Z,5.80
2022-09-30T01:14:06.634Z,7.07
2022-09-30T01:14:38.166Z,6.90
2022-09-30T01:15:09.754Z,8.35
2022-09-30T01:15:50.318Z,7.43
2022-09-30T01:16:24.459Z,5.97
2022-09-30T01:17:04.048Z,6.60
2022-09-30T01:18:04.548Z,6.72
2022-09-30T01:18:35.898Z,8.07
2022-09-30T01:19:13.157Z,7.70
2022-09-30T01:19:44.547Z,7.75
2022-09-30T01:20:21.824Z,6.03
2022-09-30T01:21:00.577Z,8.18
2022-09-30T01:21:34.941Z,6.38
2022-09-30T01:22:19.789Z,8.13
2022-09-30T01:23:02.009Z,11.73
2022-09-30T01:23:52.215Z,8.13
2022-09-30T01:24:41.407Z,7.75
2022-09-30T01:25:29.849Z,7.18
2022-09-30T01:26:07.222Z,7.07
2022-09-30T01:26:57.230Z,6.65
2022-09-30T01:27:34.374Z,7.65
2022-09-30T01:28:16.660Z,8.07
2022-09-30T01:28:47.998Z,5.93
2022-09-30T01:29:31.417Z,7.28
2022-09-30T01:30:02.758Z,7.72
2022-09-30T01:30:34.091Z,6.95
2022-09-30T01:31:18.162Z,6.40
2022-09-30T01:31:52.665Z,6.47
2022-09-30T01:32:24.020Z,7.03
2022-09-30T01:33:11.467Z,6.53
2022-09-30T01:34:11.947Z,6.13
2022-09-30T01:34:53.299Z,6.78
2022-09-30T01:35:24.643Z,8.82
2022-09-30T01:36:13.913Z,6.05
2022-09-30T01:36:51.220Z,8.10
2022-09-30T01:37:25.375Z,6.22
2022-09-30T01:38:15.253Z,5.97
2022-09-30T01:38:49.453Z,7.32
2022-09-30T01:39:37.584Z,8.15
2022-09-30T01:40:20.791Z,7.20
2022-09-30T01:41:12.458Z,7.65
2022-09-30T01:41:49.932Z,7.43
2022-09-30T01:42:24.290Z,5.60
2022-09-30T01:43:07.909Z,5.90
2022-09-30T01:43:44.986Z,5.93
2022-09-30T01:44:19.741Z,7.85
2022-09-30T01:44:56.666Z,6.63
2022-09-30T01:45:33.984Z,6.75
2022-09-30T01:46:28.789Z,6.22
2022-09-30T01:47:09.218Z,6.55
2022-09-30T01:47:50.333Z,6.45
2022-09-30T01:48:36.913Z,6.20
2022-09-30T01:49:11.042Z,6.88
2022-09-30T01:49:46.703Z,7.67
2022-09-30T01:50:38.316Z,6.97
2022-09-30T01:51:11.567Z,6.90
2022-09-30T01:51:42.938Z,7.40
2022-09-30T01:52:22.426Z,6.38
2022-09-30T01:53:01.633Z,6.07
2022-09-30T01:53:45.582Z,7.53
2022-09-30T01:54:39.997Z,5.88
2022-09-30T01:55:17.675Z,7.95
2022-09-30T01:55:53.230Z,6.82
2022-09-30T01:56:35.178Z,6.72
2022-09-30T01:57:23.595Z,6.47
2022-09-30T01:58:01.007Z,6.65
2022-09-30T01:58:38.473Z,7.80
2022-09-30T01:59:09.819Z,7.80
2022-09-30T01:59:46.433Z,6.45
2022-09-30T02:00:18.236Z,7.07
2022-09-30T02:00:53.457Z,6.00
2022-09-30T02:01:27.184Z,6.45
2022-09-30T02:02:02.308Z,6.90
2022-09-30T02:02:36.429Z,7.40
2022-09-30T02:03:22.333Z,6.47
2022-09-30T02:03:58.142Z,7.32
2022-09-30T02:04:33.021Z,6.60
2022-09-30T02:05:09.255Z,6.88
2022-09-30T02:05:40.548Z,8.43
2022-09-30T02:06:14.044Z,7.25
2022-09-30T02:06:48.363Z,7.45
2022-09-30T02:07:36.011Z,8.00
2022-09-30T02:08:14.803Z,7.78
2022-09-30T02:09:00.797Z,7.40
2022-09-30T02:09:36.617Z,7.22
2022-09-30T02:10:14.232Z,7.18
2022-09-30T02:10:47.538Z,7.57
2022-09-30T02:11:29.413Z,7.85
2022-09-30T02:12:02.231Z,8.48
2022-09-30T02:12:37.564Z,7.88
2022-09-30T02:13:14.333Z,6.88
2022-09-30T02:13:49.686Z,7.32
2022-09-30T02:14:26.360Z,6.85
2022-09-30T02:15:07.624Z,7.32
2022-09-30T02:15:44.187Z,6.38
2022-09-30T02:16:17.694Z,9.52
2022-09-30T02:16:52.894Z,8.82
2022-09-30T02:17:27.290Z,7.90
2022-09-30T02:18:01.810Z,7.63
2022-09-30T02:18:38.819Z,8.75
2022-09-30T02:19:16.881Z,7.25
2022-09-30T02:19:54.047Z,8.60
2022-09-30T02:20:26.867Z,9.05
2022-09-30T02:21:00.302Z,8.10
2022-09-30T02:21:33.538Z,10.60
2022-09-30T02:22:11.951Z,7.88
2022-09-30T02:22:46.472Z,9.90
2022-09-30T02:23:21.225Z,9.00
2022-09-30T02:23:55.559Z,9.03
2022-09-30T02:24:29.090Z,8.90
2022-09-30T02:25:01.619Z,8.70
2022-09-30T02:25:35.749Z,7.80
2022-09-30T02:26:16.155Z,8.15
2022-09-30T02:26:47.943Z,7.32
2022-09-30T02:27:24.653Z,8.27
2022-09-30T02:27:58.381Z,10.32
2022-09-30T02:28:29.720Z,8.38
2022-09-30T02:29:03.330Z,8.95
2022-09-30T02:29:36.641Z,8.77
2022-09-30T02:30:08.970Z,9.07
2022-09-30T02:30:42.403Z,7.25
2022-09-30T02:31:14.481Z,8.43
2022-09-30T02:31:47.114Z,9.13
2022-09-30T02:32:21.879Z,8.20
2022-09-30T02:32:58.547Z,10.50
2022-09-30T02:33:33.159Z,9.02
2022-09-30T02:34:08.001Z,8.77
2022-09-30T02:34:40.985Z,9.43
2022-09-30T02:35:19.008Z,9.38
2022-09-30T02:35:55.938Z,9.60
2022-09-30T02:36:35.996Z,8.73
2022-09-30T02:37:12.353Z,8.77
2022-09-30T02:37:49.316Z,7.82
2022-09-30T02:38:22.954Z,9.32
2022-09-30T02:38:59.518Z,8.13
2022-09-30T02:39:49.424Z,8.57
2022-09-30T02:40:24.405Z,9.27
2022-09-30T02:41:02.517Z,9.68
2022-09-30T02:41:40.016Z,8.15
2022-09-30T02:42:19.777Z,8.27
2022-09-30T02:42:51.256Z,8.65
2022-09-30T02:43:22.734Z,8.85
2022-09-30T02:43:54.638Z,9.00
2022-09-30T02:44:26.219Z,9.10
2022-09-30T02:45:02.180Z,8.40
2022-09-30T02:45:39.023Z,9.52
2022-09-30T02:46:18.802Z,10.93
2022-09-30T02:47:01.034Z,9.30
2022-09-30T02:47:41.814Z,9.13
2022-09-30T02:48:31.790Z,9.05
2022-09-30T02:49:08.540Z,9.15
2022-09-30T02:49:56.311Z,9.05
2022-09-30T02:50:43.283Z,16.53
2022-09-30T02:51:16.875Z,9.80
2022-09-30T02:51:50.983Z,9.00
2022-09-30T02:52:43.010Z,10.57
2022-09-30T02:53:20.157Z,10.93
2022-09-30T02:53:56.636Z,13.65
2022-09-30T02:54:50.938Z,9.40
2022-09-30T02:55:32.365Z,11.60
2022-09-30T02:56:03.732Z,9.15
2022-09-30T02:56:45.350Z,9.25
2022-09-30T02:57:19.563Z,8.63
2022-09-30T02:57:56.739Z,12.73
2022-09-30T02:58:29.511Z,9.88
2022-09-30T02:59:01.004Z,8.70
2022-09-30T02:59:32.434Z,9.30
2022-09-30T03:00:08.946Z,9.30
2022-09-30T03:00:43.313Z,9.45
2022-09-30T03:01:15.904Z,8.68
2022-09-30T03:01:47.401Z,9.25
2022-09-30T03:02:19.640Z,9.38
2022-09-30T03:02:54.055Z,9.23
2022-09-30T03:03:27.917Z,10.63
2022-09-30T03:04:00.592Z,8.77
2022-09-30T03:04:34.567Z,9.43
2022-09-30T03:05:06.249Z,8.88
2022-09-30T03:05:37.647Z,9.50
2022-09-30T03:06:09.666Z,9.55
2022-09-30T03:06:41.079Z,10.23
2022-09-30T03:07:12.609Z,9.43
2022-09-30T03:07:44.012Z,9.30
2022-09-30T03:08:15.651Z,9.10
2022-09-30T03:08:47.404Z,10.02
2022-09-30T03:09:18.981Z,8.48
2022-09-30T03:09:55.598Z,7.65
2022-09-30T03:10:27.085Z,9.43
2022-09-30T03:10:58.642Z,9.02
2022-09-30T03:11:30.573Z,9.30
2022-09-30T03:12:09.330Z,7.60
2022-09-30T03:12:40.673Z,8.20
2022-09-30T03:13:15.019Z,7.43
2022-09-30T03:14:08.725Z,9.05
2022-09-30T03:14:54.618Z,7.43
2022-09-30T03:15:44.894Z,7.57
2022-09-30T03:16:28.287Z,8.07
2022-09-30T03:17:18.222Z,7.78
2022-09-30T03:18:03.487Z,7.95
2022-09-30T03:18:37.890Z,8.73
2022-09-30T03:19:09.229Z,8.85
2022-09-30T03:20:12.971Z,6.88
2022-09-30T03:21:00.285Z,8.27
2022-09-30T03:21:43.433Z,6.97
2022-09-30T03:22:33.616Z,8.65
2022-09-30T03:23:18.279Z,7.47
2022-09-30T03:23:56.871Z,7.13
2022-09-30T03:24:28.261Z,6.60
2022-09-30T03:25:02.618Z,6.53
2022-09-30T03:25:46.302Z,7.53
2022-09-30T03:26:35.543Z,7.23
2022-09-30T03:27:17.170Z,8.20
2022-09-30T03:27:54.301Z,7.03
2022-09-30T03:28:29.361Z,6.72
2022-09-30T03:29:03.757Z,5.88
2022-09-30T03:29:38.180Z,6.65
2022-09-30T03:30:13.769Z,5.82
2022-09-30T03:31:05.513Z,5.50
2022-09-30T03:31:52.198Z,6.83
2022-09-30T03:32:26.382Z,6.97
2022-09-30T03:33:03.650Z,7.32
2022-09-30T03:33:47.270Z,8.02
2022-09-30T03:34:21.628Z,9.05
2022-09-30T03:34:59.103Z,7.20
2022-09-30T03:35:36.622Z,6.38
2022-09-30T03:36:13.802Z,6.43
2022-09-30T03:36:55.584Z,5.90
2022-09-30T03:37:40.888Z,6.63
2022-09-30T03:38:21.251Z,6.38
2022-09-30T03:38:52.639Z,6.60
2022-09-30T03:39:27.049Z,6.88
2022-09-30T03:40:10.050Z,7.22
2022-09-30T03:40:46.718Z,8.00
2022-09-30T03:41:24.133Z,8.18
2022-09-30T03:42:05.306Z,7.75
2022-09-30T03:42:44.008Z,6.95
2022-09-30T03:43:34.242Z,7.88
2022-09-30T03:44:15.544Z,7.03
2022-09-30T03:44:56.263Z,6.90
2022-09-30T03:45:33.518Z,7.40
2022-09-30T03:46:04.886Z,8.35
2022-09-30T03:46:42.300Z,7.45
2022-09-30T03:47:15.320Z,7.63
2022-09-30T03:47:50.648Z,7.37
2022-09-30T03:48:23.010Z,7.43
2022-09-30T03:48:56.179Z,6.97
2022-09-30T03:49:34.387Z,8.75
2022-09-30T03:50:08.275Z,6.90
2022-09-30T03:50:41.412Z,7.40
2022-09-30T03:51:13.403Z,8.40
2022-09-30T03:51:44.844Z,7.88
2022-09-30T03:52:16.685Z,7.05
2022-09-30T03:52:48.780Z,8.00
2022-09-30T03:53:20.300Z,7.10
2022-09-30T03:53:51.670Z,7.22
2022-09-30T03:54:23.053Z,7.38
2022-09-30T03:54:55.473Z,7.40
2022-09-30T03:55:26.894Z,7.80
2022-09-30T03:55:58.254Z,7.50
2022-09-30T03:56:30.438Z,6.80
2022-09-30T03:57:03.378Z,7.57
2022-09-30T03:57:34.853Z,7.87
2022-09-30T03:58:06.234Z,8.00
2022-09-30T03:58:40.243Z,6.75
2022-09-30T03:59:24.675Z,7.05
2022-09-30T03:59:59.293Z,6.40
2022-09-30T04:00:30.696Z,7.15
2022-09-30T04:01:02.198Z,6.65
2022-09-30T04:01:33.636Z,6.68
2022-09-30T04:02:05.078Z,6.22
2022-09-30T04:02:36.436Z,7.68
2022-09-30T04:03:07.801Z,7.38
2022-09-30T04:03:39.169Z,7.95
2022-09-30T04:04:10.495Z,6.07
2022-09-30T04:04:42.194Z,6.25
2022-09-30T04:05:13.561Z,6.22
2022-09-30T04:05:45.057Z,7.05
2022-09-30T04:06:16.483Z,7.05
2022-09-30T04:06:47.868Z,6.28
2022-09-30T04:07:19.680Z,5.95
2022-09-30T04:07:51.056Z,7.17
2022-09-30T04:08:22.421Z,8.70
2022-09-30T04:08:53.898Z,6.57
2022-09-30T04:09:25.457Z,7.03
2022-09-30T04:09:56.948Z,6.40
2022-09-30T04:10:28.309Z,6.90
2022-09-30T04:10:59.707Z,6.30
2022-09-30T04:11:31.113Z,5.63
2022-09-30T04:12:02.495Z,6.55
2022-09-30T04:12:34.250Z,5.97
2022-09-30T04:13:05.625Z,5.93
2022-09-30T04:13:37.270Z,5.80
2022-09-30T04:14:09.024Z,7.07
2022-09-30T04:14:40.403Z,5.18
2022-09-30T04:15:11.739Z,5.82
2022-09-30T04:15:43.124Z,5.93
2022-09-30T04:16:14.555Z,7.07
2022-09-30T04:16:46.674Z,6.40
2022-09-30T04:17:20.051Z,6.10
2022-09-30T04:17:51.435Z,5.85
2022-09-30T04:18:22.925Z,6.05
2022-09-30T04:18:54.259Z,6.90
2022-09-30T04:19:25.644Z,5.90
2022-09-30T04:19:57.027Z,6.53
2022-09-30T04:20:29.142Z,5.45
2022-09-30T04:21:00.568Z,6.07
2022-09-30T04:21:31.946Z,5.70
2022-09-30T04:22:03.514Z,6.93
2022-09-30T04:22:34.870Z,5.72
2022-09-30T04:23:06.368Z,5.88
2022-09-30T04:23:38.276Z,5.68
2022-09-30T04:24:09.704Z,5.32
2022-09-30T04:24:41.088Z,5.73
2022-09-30T04:25:12.622Z,5.45
2022-09-30T04:25:44.067Z,5.45
2022-09-30T04:26:16.168Z,6.28
2022-09-30T04:26:47.568Z,5.18
2022-09-30T04:27:18.915Z,6.10
2022-09-30T04:27:50.377Z,6.43
2022-09-30T04:28:22.585Z,5.45
2022-09-30T04:28:53.972Z,6.18
2022-09-30T04:29:25.630Z,5.72
2022-09-30T04:29:56.988Z,5.70
2022-09-30T04:30:33.295Z,5.53
2022-09-30T04:31:05.795Z,5.82
2022-09-30T04:31:37.216Z,6.00
2022-09-30T04:32:08.582Z,6.50
2022-09-30T04:32:42.078Z,5.47
2022-09-30T04:33:13.406Z,5.90
2022-09-30T04:33:44.886Z,5.60
2022-09-30T04:34:16.382Z,6.05
2022-09-30T04:34:47.729Z,5.47
2022-09-30T04:35:19.116Z,5.30
2022-09-30T04:35:53.256Z,6.88
2022-09-30T04:36:24.593Z,5.60
2022-09-30T04:36:55.930Z,5.03
2022-09-30T04:37:27.359Z,5.82
2022-09-30T04:37:58.701Z,5.20
2022-09-30T04:38:30.233Z,6.18
2022-09-30T04:39:01.736Z,5.97
2022-09-30T04:39:33.112Z,4.90
2022-09-30T04:40:04.714Z,6.63
2022-09-30T04:40:36.806Z,8.68
2022-09-30T04:41:08.333Z,4.82
2022-09-30T04:41:39.784Z,4.88
2022-09-30T04:42:11.223Z,5.38
2022-09-30T04:42:42.966Z,5.53
2022-09-30T04:43:14.298Z,5.35
2022-09-30T04:43:46.244Z,6.75
2022-09-30T04:44:17.639Z,7.55
2022-09-30T04:44:49.029Z,5.93
2022-09-30T04:45:20.458Z,6.05
2022-09-30T04:45:52.577Z,5.50
2022-09-30T04:46:24.203Z,5.20
2022-09-30T04:46:55.553Z,4.75
2022-09-30T04:47:26.915Z,5.70
2022-09-30T04:47:58.323Z,5.15
2022-09-30T04:48:29.693Z,5.32
2022-09-30T04:49:01.083Z,5.50
2022-09-30T04:49:32.519Z,4.82
2022-09-30T04:50:04.880Z,5.47
2022-09-30T04:50:36.266Z,6.10
2022-09-30T04:51:07.594Z,4.47
2022-09-30T04:51:38.987Z,4.93
2022-09-30T04:52:10.320Z,5.05
2022-09-30T04:52:42.527Z,5.15
2022-09-30T04:53:14.077Z,5.20
2022-09-30T04:53:45.877Z,5.78
2022-09-30T04:54:17.238Z,4.63
2022-09-30T04:54:48.632Z,6.00
2022-09-30T04:55:20.009Z,4.47
2022-09-30T04:55:51.401Z,5.50
2022-09-30T04:56:23.096Z,5.07
2022-09-30T04:56:54.485Z,4.85
2022-09-30T04:57:25.876Z,4.10
2022-09-30T04:57:57.309Z,4.18
2022-09-30T04:58:32.264Z,5.22
2022-09-30T04:59:06.233Z,4.10
2022-09-30T04:59:37.612Z,3.75
2022-09-30T05:00:09.604Z,4.20
2022-09-30T05:00:41.061Z,4.85
2022-09-30T05:01:16.133Z,4.63
2022-09-30T05:01:47.593Z,3.78
2022-09-30T05:02:19.137Z,4.20
2022-09-30T05:02:50.797Z,5.50
2022-09-30T05:03:22.139Z,6.13
2022-09-30T05:03:54.075Z,4.35
2022-09-30T05:04:25.407Z,4.07
2022-09-30T05:04:56.753Z,3.92
2022-09-30T05:05:28.128Z,4.22
2022-09-30T05:05:59.613Z,4.53
2022-09-30T05:06:30.961Z,5.50
2022-09-30T05:07:02.347Z,4.85
2022-09-30T05:07:33.683Z,5.53
2022-09-30T05:08:05.420Z,3.92
2022-09-30T05:08:38.798Z,5.65
2022-09-30T05:09:13.284Z,4.22
2022-09-30T05:09:44.786Z,4.40
2022-09-30T05:10:16.220Z,4.18
2022-09-30T05:10:53.493Z,3.88
2022-09-30T05:11:24.907Z,5.20
2022-09-30T05:11:56.298Z,4.40
2022-09-30T05:12:27.770Z,4.25
2022-09-30T05:12:59.157Z,4.70
2022-09-30T05:13:34.852Z,5.35
2022-09-30T05:14:09.261Z,5.28
2022-09-30T05:14:40.653Z,4.70
2022-09-30T05:15:12.077Z,4.90
2022-09-30T05:15:43.415Z,4.60
2022-09-30T05:16:15.644Z,6.47
2022-09-30T05:16:47.066Z,5.32
2022-09-30T05:17:18.430Z,5.55
2022-09-30T05:17:49.891Z,4.85
2022-09-30T05:18:21.565Z,6.22
2022-09-30T05:18:52.964Z,5.15
2022-09-30T05:19:24.433Z,4.97
2022-09-30T05:19:55.835Z,5.53
2022-09-30T05:20:27.224Z,5.05
2022-09-30T05:20:58.578Z,6.53
2022-09-30T05:21:29.903Z,6.07
2022-09-30T05:22:01.231Z,5.55
2022-09-30T05:22:32.601Z,4.88
2022-09-30T05:23:03.992Z,7.07
2022-09-30T05:23:35.381Z,7.38
2022-09-30T05:24:06.776Z,5.93
2022-09-30T05:24:38.156Z,5.72
2022-09-30T05:25:09.802Z,8.32
2022-09-30T05:25:41.186Z,8.97
2022-09-30T05:26:13.141Z,8.48
2022-09-30T05:26:44.566Z,6.40
2022-09-30T05:27:16.005Z,7.05
2022-09-30T05:27:50.672Z,7.38
2022-09-30T05:28:22.061Z,7.18
2022-09-30T05:28:53.539Z,6.05
2022-09-30T05:29:24.979Z,5.95
2022-09-30T05:29:56.420Z,5.43
2022-09-30T05:30:28.161Z,6.55
2022-09-30T05:31:01.133Z,5.78
2022-09-30T05:31:33.378Z,5.70
2022-09-30T05:32:04.835Z,5.63
2022-09-30T05:32:36.177Z,5.63
2022-09-30T05:33:08.133Z,5.53
2022-09-30T05:33:39.529Z,5.77
2022-09-30T05:34:10.895Z,5.18
2022-09-30T05:34:42.223Z,6.55
2022-09-30T05:35:13.601Z,6.20
2022-09-30T05:35:44.958Z,6.28
2022-09-30T05:36:16.584Z,6.55
2022-09-30T05:36:47.937Z,5.75
2022-09-30T05:37:19.307Z,5.43
2022-09-30T05:37:50.648Z,4.78
2022-09-30T05:38:22.030Z,4.97
2022-09-30T05:38:53.944Z,5.65
2022-09-30T05:39:25.268Z,5.57
2022-09-30T05:39:56.613Z,5.35
2022-09-30T05:40:27.959Z,6.70
2022-09-30T05:40:59.403Z,5.38
2022-09-30T05:41:30.741Z,5.45
2022-09-30T05:42:02.359Z,5.13
2022-09-30T05:42:33.705Z,5.90
2022-09-30T05:43:05.392Z,6.35
2022-09-30T05:43:37.569Z,5.78
2022-09-30T05:44:09.485Z,6.13
2022-09-30T05:44:40.847Z,6.15
2022-09-30T05:45:12.355Z,7.05
2022-09-30T05:45:51.317Z,6.10
2022-09-30T05:46:22.677Z,5.20
2022-09-30T05:46:54.212Z,5.70
2022-09-30T05:47:25.610Z,6.47
2022-09-30T05:47:57.002Z,6.20
2022-09-30T05:48:28.342Z,6.32
2022-09-30T05:48:59.705Z,6.30
2022-09-30T05:49:31.119Z,5.90
2022-09-30T05:50:02.554Z,5.80
2022-09-30T05:50:34.137Z,7.07
2022-09-30T05:51:05.590Z,6.82
2022-09-30T05:51:36.920Z,6.20
2022-09-30T05:52:08.269Z,7.47
2022-09-30T05:52:39.684Z,6.32
2022-09-30T05:53:11.054Z,7.20
2022-09-30T05:53:42.461Z,5.95
2022-09-30T05:54:13.869Z,7.15
2022-09-30T05:54:45.245Z,7.28
2022-09-30T05:55:16.979Z,6.63
2022-09-30T05:55:48.673Z,6.78
2022-09-30T05:56:20.050Z,6.78
2022-09-30T05:56:51.389Z,5.93
2022-09-30T05:57:22.720Z,7.70
2022-09-30T05:57:54.064Z,7.13
2022-09-30T05:58:25.399Z,6.38
2022-09-30T05:58:56.773Z,5.93
2022-09-30T05:59:28.119Z,6.75
2022-09-30T05:59:59.511Z,5.70
2022-09-30T06:00:30.834Z,5.85
2022-09-30T06:01:12.064Z,6.85
2022-09-30T06:01:44.809Z,5.60
2022-09-30T06:02:16.285Z,7.72
2022-09-30T06:02:51.178Z,6.88
2022-09-30T06:03:22.895Z,6.10
2022-09-30T06:03:54.243Z,6.53
2022-09-30T06:04:25.640Z,5.88
2022-09-30T06:04:56.986Z,6.00
2022-09-30T06:05:28.424Z,6.40
2022-09-30T06:05:59.858Z,6.38
2022-09-30T06:06:31.258Z,6.80
2022-09-30T06:07:05.911Z,6.43
2022-09-30T06:07:39.955Z,6.38
2022-09-30T06:08:11.951Z,9.05
2022-09-30T06:08:43.624Z,6.30
2022-09-30T06:09:15.447Z,8.80
2022-09-30T06:09:46.955Z,6.75
2022-09-30T06:10:18.419Z,6.70
2022-09-30T06:10:49.855Z,6.57
2022-09-30T06:11:21.523Z,7.47
2022-09-30T06:11:52.892Z,6.38
2022-09-30T06:12:24.261Z,6.22
2022-09-30T06:12:55.647Z,7.32
2022-09-30T06:13:27.283Z,12.48
2022-09-30T06:13:58.646Z,8.85
2022-09-30T06:14:29.974Z,9.50
2022-09-30T06:15:01.357Z,7.18
2022-09-30T06:15:32.909Z,6.90
2022-09-30T06:16:04.356Z,7.40
2022-09-30T06:16:35.750Z,6.38
2022-09-30T06:17:07.122Z,6.63
2022-09-30T06:17:38.545Z,7.28
2022-09-30T06:18:09.970Z,6.75
2022-09-30T06:18:41.665Z,6.53
2022-09-30T06:19:13.263Z,6.30
2022-09-30T06:19:44.576Z,7.47
2022-09-30T06:20:15.940Z,7.68
2022-09-30T06:20:47.259Z,6.97
2022-09-30T06:21:18.588Z,7.78
2022-09-30T06:21:49.924Z,6.35
2022-09-30T06:22:21.258Z,6.43
2022-09-30T06:22:52.705Z,6.32
2022-09-30T06:23:24.379Z,7.45
2022-09-30T06:23:55.728Z,7.85
2022-09-30T06:24:27.053Z,7.18
2022-09-30T06:24:58.378Z,8.00
2022-09-30T06:25:30.185Z,7.65
2022-09-30T06:26:02.550Z,7.40
2022-09-30T06:26:33.891Z,6.82
2022-09-30T06:27:05.258Z,7.97
2022-09-30T06:27:36.846Z,7.85
2022-09-30T06:28:08.190Z,8.07
2022-09-30T06:28:39.830Z,8.55
2022-09-30T06:29:11.258Z,8.57
2022-09-30T06:29:42.626Z,9.88
2022-09-30T06:30:14.508Z,7.65
2022-09-30T06:30:45.909Z,7.43
2022-09-30T06:31:17.302Z,7.95
2022-09-30T06:31:48.697Z,8.50
2022-09-30T06:32:20.063Z,8.35
2022-09-30T06:32:51.399Z,6.80
2022-09-30T06:33:22.713Z,6.03
2022-09-30T06:33:54.048Z,9.57
2022-09-30T06:34:25.375Z,7.72
2022-09-30T06:34:56.740Z,6.50
2022-09-30T06:35:28.132Z,7.35
2022-09-30T06:35:59.692Z,6.15
2022-09-30T06:36:31.112Z,7.72
2022-09-30T06:37:02.445Z,7.60
2022-09-30T06:37:33.782Z,7.35
2022-09-30T06:38:05.128Z,7.00
2022-09-30T06:38:36.518Z,7.93
2022-09-30T06:39:19.038Z,7.15
2022-09-30T06:39:50.640Z,6.53
2022-09-30T06:40:21.985Z,8.27
2022-09-30T06:40:53.330Z,7.20
2022-09-30T06:41:24.663Z,7.50
2022-09-30T06:41:56.001Z,7.28
2022-09-30T06:42:27.381Z,8.07
2022-09-30T06:42:59.525Z,6.57
2022-09-30T06:43:32.500Z,7.63
2022-09-30T06:44:06.288Z,6.90
2022-09-30T06:44:49.372Z,8.32
2022-09-30T06:45:32.131Z,7.53
2022-09-30T06:46:14.935Z,7.45
2022-09-30T06:46:53.798Z,13.10
2022-09-30T06:47:26.262Z,7.13
2022-09-30T06:48:00.745Z,7.93
2022-09-30T06:48:38.121Z,7.32
2022-09-30T06:49:13.665Z,8.23
2022-09-30T06:49:49.453Z,7.82
2022-09-30T06:50:25.700Z,8.18
2022-09-30T06:51:01.976Z,6.80
2022-09-30T06:51:33.730Z,7.32
2022-09-30T06:52:05.061Z,8.30
2022-09-30T06:52:36.409Z,8.52
2022-09-30T06:53:08.719Z,8.10
2022-09-30T06:53:40.095Z,9.15
2022-09-30T06:54:11.456Z,9.32
2022-09-30T06:54:42.792Z,14.40
2022-09-30T06:55:14.149Z,11.73
2022-09-30T06:55:45.484Z,10.25
2022-09-30T06:56:16.998Z,11.75
2022-09-30T06:56:48.608Z,12.20
2022-09-30T06:57:19.930Z,11.48
2022-09-30T06:57:51.275Z,12.32
2022-09-30T06:58:22.918Z,11.10
2022-09-30T06:58:54.466Z,11.45
2022-09-30T06:59:25.812Z,12.30
2022-09-30T06:59:57.141Z,11.65
2022-09-30T07:00:28.488Z,10.50
2022-09-30T07:01:00.778Z,9.77
2022-09-30T07:01:32.180Z,9.68
2022-09-30T07:02:03.574Z,8.52
2022-09-30T07:02:34.969Z,9.63
2022-09-30T07:03:06.631Z,8.37
2022-09-30T07:03:37.964Z,9.70
2022-09-30T07:04:10.673Z,7.93
2022-09-30T07:04:42.403Z,8.03
2022-09-30T07:05:13.786Z,7.47
2022-09-30T07:05:45.109Z,8.85
2022-09-30T07:06:16.484Z,7.30
2022-09-30T07:06:47.801Z,6.57
2022-09-30T07:07:19.133Z,8.27
2022-09-30T07:07:50.446Z,7.95
2022-09-30T07:08:21.790Z,9.43
2022-09-30T07:08:53.076Z,7.38
2022-09-30T07:09:24.573Z,7.75
2022-09-30T07:09:59.529Z,8.20
2022-09-30T07:10:31.195Z,7.75
2022-09-30T07:11:03.827Z,9.48
2022-09-30T07:11:35.633Z,6.30
2022-09-30T07:12:06.973Z,8.82
2022-09-30T07:12:38.303Z,7.55
2022-09-30T07:13:09.629Z,7.82
2022-09-30T07:13:41.694Z,8.05
2022-09-30T07:14:13.044Z,7.97
2022-09-30T07:14:44.370Z,8.07
2022-09-30T07:15:15.759Z,9.40
2022-09-30T07:15:47.098Z,7.95
2022-09-30T07:16:19.334Z,8.45
2022-09-30T07:16:51.677Z,7.93
2022-09-30T07:17:23.068Z,8.80
2022-09-30T07:17:54.979Z,8.15
2022-09-30T07:18:26.331Z,8.07
2022-09-30T07:18:57.965Z,8.95
2022-09-30T07:19:29.387Z,9.73
2022-09-30T07:20:00.835Z,8.57
2022-09-30T07:20:32.188Z,7.93
2022-09-30T07:21:03.626Z,8.13
2022-09-30T07:21:34.985Z,7.30
2022-09-30T07:22:06.540Z,8.10
2022-09-30T07:22:37.859Z,7.60
2022-09-30T07:23:09.195Z,8.15
2022-09-30T07:23:40.500Z,8.05
2022-09-30T07:24:11.819Z,6.95
2022-09-30T07:24:43.190Z,6.47
2022-09-30T07:25:14.955Z,6.63
2022-09-30T07:25:50.649Z,5.90
2022-09-30T07:26:23.485Z,5.90
2022-09-30T07:26:54.817Z,6.70
2022-09-30T07:27:27.708Z,5.95
2022-09-30T07:27:59.042Z,6.00
2022-09-30T07:28:31.952Z,6.57
2022-09-30T07:29:03.310Z,7.05
2022-09-30T07:29:56.590Z,6.13
2022-09-30T07:30:27.470Z,6.18
2022-09-30T07:31:27.455Z,8.50
2022-09-30T07:31:51.274Z,7.70